Ana Sayfa
METAR-TAF:

METAR-TAF

Havaalanları :

Edinburg, Teksas, Amerika Birleşik Devletleri

Enlem: 26-26-31N, Boylam: 098-07-46W, yükseklik: 24 m

Güncel hava durumu gözlemi

Rapor saat 01:15 UTC de 15 dakika önce yapıldı.
Rüzgar doğu/güneydoğudan 12 kt ve 18 kt'a kadar ani rüzgarlar
Sıcaklık 30°C
Nem 59%
Basınç 1013 hPa
Görüş mesafesi: 16.1 km
Açık gökyüzü

METAR: KEBG 260115Z AUTO 12012G18KT 10SM CLR 30/21 A2992 RMK AO2 T03000206

Saat: 20:30 (01:30 UTC)


TAF: eksik

4.000'den fazla havaalanı için hava durumu gözlemleri ve tahminleri (METAR ve TAF raporları).

Kullanılabilir istasyonlar harita üzerinde sarı ve kırmızı noktalarla gösterilir.

İstasyonun adını görmek için fareyi noktanın üzerinde gezdirin.

Sonrasında hava gözlem ve tahminlerini görmek için tıklayın.

Haritayı değiştirmek için: yaklaştırmak için siyah artı işaretli yeşil düğmeye ve uzaklaştırmak için de eksi işaretli düğmeye hızla tıklayın; bitişik haritalar için yeşil okları kullanın.


METAR-TAF: